createdAt,value
2023-04-16T00:00:08.710Z,8.40
2023-04-16T00:02:17.042Z,8.40
2023-04-16T00:04:19.870Z,8.30
2023-04-16T00:06:23.509Z,8.30
2023-04-16T00:08:26.186Z,8.60
2023-04-16T00:10:28.863Z,8.80
2023-04-16T00:12:34.082Z,9.40
2023-04-16T00:14:36.632Z,8.20
2023-04-16T00:16:39.251Z,8.20
2023-04-16T00:18:42.621Z,8.20
2023-04-16T00:20:45.169Z,8.20
2023-04-16T00:22:47.750Z,8.60
2023-04-16T00:24:51.162Z,8.10
2023-04-16T00:26:53.760Z,8.20
2023-04-16T00:28:58.982Z,7.40
2023-04-16T00:31:02.124Z,8.10
2023-04-16T00:33:05.691Z,8.70
2023-04-16T00:35:09.021Z,8.10
2023-04-16T00:37:12.207Z,8.10
2023-04-16T00:39:14.776Z,8.10
2023-04-16T00:41:19.320Z,7.20
2023-04-16T00:43:25.033Z,8.10
2023-04-16T00:45:30.224Z,8.00
2023-04-16T00:47:32.934Z,8.00
2023-04-16T00:49:36.383Z,8.00
2023-04-16T00:51:39.166Z,8.90
2023-04-16T00:53:43.102Z,8.00
2023-04-16T00:55:46.213Z,8.10
2023-04-16T00:57:48.770Z,8.00
2023-04-16T00:59:52.100Z,8.00
2023-04-16T01:01:57.462Z,7.90
2023-04-16T01:04:00.399Z,7.30
2023-04-16T01:06:03.535Z,7.50
2023-04-16T01:08:06.832Z,8.00
2023-04-16T01:10:09.906Z,8.00
2023-04-16T01:12:12.470Z,8.00
2023-04-16T01:14:15.156Z,8.00
2023-04-16T01:16:17.908Z,8.00
2023-04-16T01:18:24.219Z,8.00
2023-04-16T01:20:27.732Z,8.00
2023-04-16T01:22:35.262Z,8.00
2023-04-16T01:24:38.669Z,8.00
2023-04-16T01:26:41.530Z,8.00
2023-04-16T01:28:44.237Z,8.00
2023-04-16T01:30:46.817Z,8.30
2023-04-16T01:33:00.185Z,7.90
2023-04-16T01:35:03.328Z,8.50
2023-04-16T01:37:05.960Z,8.00
2023-04-16T01:39:14.340Z,7.90
2023-04-16T01:41:19.149Z,7.90
2023-04-16T01:43:22.466Z,7.90
2023-04-16T01:45:25.468Z,8.00
2023-04-16T01:47:28.064Z,7.90
2023-04-16T01:49:31.231Z,7.90
2023-04-16T01:51:34.213Z,7.90
2023-04-16T01:53:37.299Z,7.90
2023-04-16T01:55:42.573Z,7.90
2023-04-16T01:57:45.357Z,7.80
2023-04-16T01:59:49.364Z,7.80
2023-04-16T02:01:53.135Z,8.80
2023-04-16T02:03:56.079Z,7.90
2023-04-16T02:05:58.636Z,8.30
2023-04-16T02:08:01.288Z,7.90
2023-04-16T02:10:05.475Z,9.10
2023-04-16T02:12:12.034Z,7.90
2023-04-16T02:14:14.778Z,7.90
2023-04-16T02:16:19.174Z,7.90
2023-04-16T02:18:32.149Z,7.90
2023-04-16T02:20:40.766Z,7.90
2023-04-16T02:22:43.657Z,7.90
2023-04-16T02:24:50.835Z,8.00
2023-04-16T02:26:58.524Z,8.00
2023-04-16T02:29:03.992Z,8.00
2023-04-16T02:31:19.881Z,8.00
2023-04-16T02:33:26.512Z,9.40
2023-04-16T02:35:37.420Z,8.10
2023-04-16T02:37:41.176Z,8.10
2023-04-16T02:39:44.223Z,8.10
2023-04-16T02:41:46.755Z,8.10
2023-04-16T02:43:49.518Z,9.00
2023-04-16T02:45:54.801Z,8.20
2023-04-16T02:47:57.473Z,7.20
2023-04-16T02:50:00.110Z,8.20
2023-04-16T02:52:02.849Z,8.10
2023-04-16T02:54:05.529Z,8.20
2023-04-16T02:56:08.853Z,8.20
2023-04-16T02:58:13.561Z,8.10
2023-04-16T03:00:16.748Z,9.10
2023-04-16T03:02:22.039Z,8.00
2023-04-16T03:04:25.021Z,8.10
2023-04-16T03:06:27.729Z,8.10
2023-04-16T03:08:30.391Z,7.00
2023-04-16T03:10:33.209Z,8.10
2023-04-16T03:12:36.465Z,8.00
2023-04-16T03:14:42.539Z,8.00
2023-04-16T03:16:45.209Z,8.00
2023-04-16T03:18:51.089Z,7.50
2023-04-16T03:20:55.158Z,8.00
2023-04-16T03:22:57.838Z,8.00
2023-04-16T03:25:00.541Z,7.90
2023-04-16T03:27:03.333Z,8.80
2023-04-16T03:29:06.199Z,8.00
2023-04-16T03:31:11.362Z,7.90
2023-04-16T03:33:14.048Z,7.70
2023-04-16T03:35:19.447Z,8.00
2023-04-16T03:37:22.096Z,8.00
2023-04-16T03:39:26.220Z,7.90
2023-04-16T03:41:28.890Z,7.80
2023-04-16T03:43:31.890Z,8.80
2023-04-16T03:45:35.252Z,8.00
2023-04-16T03:47:37.896Z,8.10
2023-04-16T03:49:40.865Z,9.10
2023-04-16T03:51:46.412Z,7.90
2023-04-16T03:53:49.081Z,8.50
2023-04-16T03:55:53.032Z,7.90
2023-04-16T03:57:57.654Z,8.00
2023-04-16T04:00:00.452Z,7.90
2023-04-16T04:02:11.087Z,7.80
2023-04-16T04:04:14.196Z,7.30
2023-04-16T04:06:17.695Z,9.10
2023-04-16T04:08:23.156Z,7.90
2023-04-16T04:10:27.158Z,7.80
2023-04-16T04:12:29.873Z,7.90
2023-04-16T04:14:32.536Z,7.90
2023-04-16T04:16:36.015Z,7.70
2023-04-16T04:18:44.268Z,7.00
2023-04-16T04:20:47.484Z,7.90
2023-04-16T04:22:54.349Z,7.80
2023-04-16T04:25:06.607Z,8.90
2023-04-16T04:27:15.551Z,7.80
2023-04-16T04:29:19.048Z,7.50
2023-04-16T04:31:24.287Z,8.90
2023-04-16T04:33:29.875Z,7.90
2023-04-16T04:35:40.187Z,7.80
2023-04-16T04:37:45.022Z,8.50
2023-04-16T04:39:57.329Z,9.00
2023-04-16T04:42:08.596Z,7.80
2023-04-16T04:44:11.839Z,8.90
2023-04-16T04:46:15.143Z,9.00
2023-04-16T04:48:18.253Z,7.80
2023-04-16T04:50:22.316Z,9.00
2023-04-16T04:52:25.610Z,8.60
2023-04-16T04:54:35.263Z,7.80
2023-04-16T04:56:38.473Z,8.70
2023-04-16T04:58:45.617Z,7.70
2023-04-16T05:00:49.986Z,7.80
2023-04-16T05:02:52.827Z,7.70
2023-04-16T05:04:59.060Z,7.70
2023-04-16T05:07:02.742Z,8.20
2023-04-16T05:09:06.283Z,9.10
2023-04-16T05:11:15.001Z,8.30
2023-04-16T05:13:21.947Z,7.80
2023-04-16T05:15:27.469Z,7.80
2023-04-16T05:17:30.919Z,7.70
2023-04-16T05:19:37.200Z,7.80
2023-04-16T05:21:41.422Z,7.20
2023-04-16T05:23:45.269Z,7.70
2023-04-16T05:25:48.090Z,9.00
2023-04-16T05:27:55.204Z,7.70
2023-04-16T05:30:06.449Z,7.80
2023-04-16T05:32:15.461Z,6.90
2023-04-16T05:34:18.985Z,8.30
2023-04-16T05:36:22.382Z,7.80
2023-04-16T05:38:28.045Z,7.70
2023-04-16T05:40:31.620Z,7.90
2023-04-16T05:42:34.506Z,7.90
2023-04-16T05:44:39.095Z,7.80
2023-04-16T05:46:42.096Z,7.60
2023-04-16T05:48:47.509Z,7.90
2023-04-16T05:50:54.237Z,7.90
2023-04-16T05:52:59.686Z,8.00
2023-04-16T05:55:02.494Z,8.30
2023-04-16T05:57:08.046Z,8.00
2023-04-16T05:59:20.878Z,8.80
2023-04-16T06:01:28.565Z,8.10
2023-04-16T06:03:34.154Z,8.10
2023-04-16T06:05:39.801Z,8.10
2023-04-16T06:07:42.824Z,8.10
2023-04-16T06:09:48.006Z,8.20
2023-04-16T06:11:53.681Z,8.20
2023-04-16T06:13:56.850Z,8.60
2023-04-16T06:16:02.353Z,7.60
2023-04-16T06:18:11.944Z,8.20
2023-04-16T06:20:15.054Z,8.80
2023-04-16T06:22:24.604Z,8.30
2023-04-16T06:24:30.578Z,9.20
2023-04-16T06:26:36.615Z,9.40
2023-04-16T06:28:39.312Z,8.30
2023-04-16T06:30:45.096Z,9.60
2023-04-16T06:32:51.029Z,8.30
2023-04-16T06:34:59.198Z,8.30
2023-04-16T06:37:03.429Z,9.70
2023-04-16T06:39:09.670Z,8.40
2023-04-16T06:41:25.856Z,8.50
2023-04-16T06:43:33.853Z,8.90
2023-04-16T06:45:39.599Z,8.60
2023-04-16T06:47:42.985Z,8.70
2023-04-16T06:49:48.651Z,8.90
2023-04-16T06:51:53.452Z,8.80
2023-04-16T06:53:57.230Z,10.10
2023-04-16T06:56:03.132Z,8.90
2023-04-16T06:58:08.679Z,9.00
2023-04-16T07:00:19.341Z,9.00
2023-04-16T07:02:32.655Z,8.60
2023-04-16T07:04:36.130Z,9.30
2023-04-16T07:06:40.750Z,9.10
2023-04-16T07:08:46.745Z,9.20
2023-04-16T07:10:52.976Z,9.20
2023-04-16T07:13:02.016Z,9.20
2023-04-16T07:15:10.606Z,9.30
2023-04-16T07:17:16.977Z,9.30
2023-04-16T07:19:22.294Z,9.40
2023-04-16T07:21:29.401Z,9.40
2023-04-16T07:23:35.509Z,9.40
2023-04-16T07:25:38.924Z,8.70
2023-04-16T07:27:42.314Z,9.50
2023-04-16T07:29:47.679Z,10.50
2023-04-16T07:31:50.634Z,9.40
2023-04-16T07:33:56.722Z,9.50
2023-04-16T07:35:59.718Z,9.60
2023-04-16T07:38:05.228Z,9.60
2023-04-16T07:40:12.205Z,9.60
2023-04-16T07:42:16.929Z,9.60
2023-04-16T07:44:26.006Z,9.60
2023-04-16T07:46:45.589Z,10.40
2023-04-16T07:48:52.938Z,9.70
2023-04-16T07:50:57.122Z,9.60
2023-04-16T07:53:03.014Z,9.70
2023-04-16T07:55:06.686Z,10.40
2023-04-16T07:57:12.439Z,9.70
2023-04-16T07:59:23.030Z,9.70
2023-04-16T08:01:28.175Z,9.70
2023-04-16T08:03:35.435Z,9.70
2023-04-16T08:05:41.038Z,10.00
2023-04-16T08:07:44.973Z,9.80
2023-04-16T08:09:54.805Z,10.20
2023-04-16T08:12:00.945Z,10.30
2023-04-16T08:14:06.088Z,10.30
2023-04-16T08:16:09.268Z,9.90
2023-04-16T08:18:18.193Z,9.10
2023-04-16T08:20:23.580Z,10.40
2023-04-16T08:22:26.775Z,10.80
2023-04-16T08:24:30.790Z,10.30
2023-04-16T08:26:34.415Z,9.80
2023-04-16T08:28:37.190Z,10.20
2023-04-16T08:30:42.131Z,10.30
2023-04-16T08:32:45.401Z,10.40
2023-04-16T08:34:50.041Z,10.90
2023-04-16T08:36:57.093Z,10.50
2023-04-16T08:39:00.210Z,10.60
2023-04-16T08:41:11.534Z,10.70
2023-04-16T08:43:19.463Z,10.70
2023-04-16T08:45:22.160Z,11.30
2023-04-16T08:47:27.836Z,10.90
2023-04-16T08:49:35.478Z,11.10
2023-04-16T08:51:49.142Z,11.20
2023-04-16T08:54:05.813Z,11.20
2023-04-16T08:56:11.670Z,11.20
2023-04-16T08:58:16.079Z,11.30
2023-04-16T09:00:22.100Z,11.40
2023-04-16T09:02:28.433Z,11.80
2023-04-16T09:04:33.016Z,12.40
2023-04-16T09:06:41.657Z,11.50
2023-04-16T09:08:45.986Z,11.60
2023-04-16T09:10:51.097Z,11.50
2023-04-16T09:12:58.059Z,10.80
2023-04-16T09:15:03.829Z,11.80
2023-04-16T09:17:07.749Z,11.70
2023-04-16T09:19:16.434Z,11.60
2023-04-16T09:21:23.792Z,11.70
2023-04-16T09:23:26.784Z,11.70
2023-04-16T09:25:37.511Z,12.50
2023-04-16T09:27:44.435Z,11.80
2023-04-16T09:29:50.501Z,11.60
2023-04-16T09:32:07.436Z,12.10
2023-04-16T09:34:15.679Z,12.10
2023-04-16T09:36:23.903Z,12.20
2023-04-16T09:38:27.194Z,12.20
2023-04-16T09:40:36.452Z,12.30
2023-04-16T09:42:45.043Z,12.30
2023-04-16T09:44:50.637Z,12.40
2023-04-16T09:46:56.468Z,12.50
2023-04-16T09:49:05.084Z,12.20
2023-04-16T09:51:07.993Z,12.40
2023-04-16T09:53:10.793Z,12.50
2023-04-16T09:55:14.092Z,12.60
2023-04-16T09:57:22.226Z,12.60
2023-04-16T09:59:31.548Z,12.70
2023-04-16T10:01:36.810Z,12.60
2023-04-16T10:03:41.393Z,12.70
2023-04-16T10:05:44.112Z,13.40
2023-04-16T10:07:50.720Z,12.90
2023-04-16T10:09:53.647Z,13.30
2023-04-16T10:11:57.830Z,12.90
2023-04-16T10:14:03.298Z,12.90
2023-04-16T10:16:09.779Z,13.00
2023-04-16T10:18:13.289Z,13.00
2023-04-16T10:20:18.155Z,13.20
2023-04-16T10:22:22.985Z,13.20
2023-04-16T10:24:35.780Z,13.20
2023-04-16T10:26:42.193Z,13.30
2023-04-16T10:28:47.413Z,13.30
2023-04-16T10:31:01.961Z,13.40
2023-04-16T10:33:08.786Z,13.50
2023-04-16T10:35:16.726Z,13.60
2023-04-16T10:37:21.019Z,13.60
2023-04-16T10:39:24.313Z,13.60
2023-04-16T10:41:32.395Z,13.70
2023-04-16T10:43:41.420Z,13.70
2023-04-16T10:45:45.040Z,13.70
2023-04-16T10:47:48.764Z,13.70
2023-04-16T10:49:54.375Z,13.80
2023-04-16T10:51:58.704Z,13.80
2023-04-16T10:54:05.573Z,14.20
2023-04-16T10:56:15.816Z,13.80
2023-04-16T10:58:28.230Z,13.80
2023-04-16T11:00:32.149Z,14.60
2023-04-16T11:02:35.210Z,13.40
2023-04-16T11:04:39.548Z,13.80
2023-04-16T11:07:05.666Z,13.00
2023-04-16T11:09:40.234Z,13.60
2023-04-16T11:11:43.015Z,13.60
2023-04-16T11:13:46.552Z,13.60
2023-04-16T11:15:49.288Z,13.70
2023-04-16T11:17:52.883Z,13.60
2023-04-16T11:19:56.314Z,13.90
2023-04-16T11:22:01.929Z,13.50
2023-04-16T11:24:04.847Z,13.50
2023-04-16T11:26:22.194Z,13.50
2023-04-16T11:28:39.318Z,13.40
2023-04-16T11:30:46.368Z,13.50
2023-04-16T11:32:50.055Z,13.50
2023-04-16T11:34:53.289Z,14.10
2023-04-16T11:36:56.362Z,13.80
2023-04-16T11:39:06.203Z,13.50
2023-04-16T11:41:13.949Z,13.30
2023-04-16T11:43:17.579Z,13.40
2023-04-16T11:45:21.841Z,13.30
2023-04-16T11:47:24.688Z,13.30
2023-04-16T11:49:30.318Z,13.00
2023-04-16T11:51:32.969Z,13.30
2023-04-16T11:53:36.917Z,13.40
2023-04-16T11:55:46.571Z,13.40
2023-04-16T11:57:52.374Z,13.50
2023-04-16T12:00:02.752Z,13.50
2023-04-16T12:02:15.722Z,13.40
2023-04-16T12:04:24.801Z,13.50
2023-04-16T12:06:27.564Z,13.50
2023-04-16T12:08:32.509Z,13.50
2023-04-16T12:10:36.524Z,13.50
2023-04-16T12:12:41.834Z,13.70
2023-04-16T12:14:51.230Z,13.40
2023-04-16T12:16:57.083Z,13.50
2023-04-16T12:19:02.686Z,13.80
2023-04-16T12:21:08.078Z,13.30
2023-04-16T12:23:11.566Z,13.40
2023-04-16T12:25:15.718Z,13.70
2023-04-16T12:27:17.991Z,13.60
2023-04-16T12:29:24.921Z,13.70
2023-04-16T12:31:38.451Z,13.70
2023-04-16T12:33:44.317Z,13.70
2023-04-16T12:35:49.916Z,14.10
2023-04-16T12:37:55.115Z,13.50
2023-04-16T12:39:58.052Z,13.30
2023-04-16T12:42:01.070Z,13.90
2023-04-16T12:44:09.372Z,13.90
2023-04-16T12:46:15.861Z,13.70
2023-04-16T12:48:20.406Z,13.60
2023-04-16T12:50:26.297Z,13.60
2023-04-16T12:52:29.486Z,13.70
2023-04-16T12:54:32.770Z,14.30
2023-04-16T12:56:36.052Z,13.80
2023-04-16T12:58:42.898Z,13.70
2023-04-16T13:00:45.935Z,13.60
2023-04-16T13:02:51.489Z,13.80
2023-04-16T13:04:54.810Z,14.10
2023-04-16T13:07:00.019Z,13.50
2023-04-16T13:09:02.825Z,13.40
2023-04-16T13:11:08.267Z,13.40
2023-04-16T13:13:10.965Z,13.40
2023-04-16T13:15:13.807Z,13.30
2023-04-16T13:17:16.900Z,13.50
2023-04-16T13:19:24.729Z,13.20
2023-04-16T13:21:27.924Z,13.20
2023-04-16T13:23:33.563Z,13.30
2023-04-16T13:25:39.623Z,13.20
2023-04-16T13:27:42.231Z,13.10
2023-04-16T13:29:45.224Z,13.00
2023-04-16T13:31:52.365Z,13.00
2023-04-16T13:33:56.630Z,13.00
2023-04-16T13:36:01.836Z,14.00
2023-04-16T13:38:04.883Z,13.60
2023-04-16T13:40:09.601Z,13.10
2023-04-16T13:42:12.243Z,13.10
2023-04-16T13:44:14.993Z,13.00
2023-04-16T13:46:19.266Z,13.20
2023-04-16T13:48:25.583Z,13.10
2023-04-16T13:50:32.278Z,13.00
2023-04-16T13:52:37.600Z,13.00
2023-04-16T13:54:42.129Z,13.10
2023-04-16T13:56:56.222Z,13.10
2023-04-16T13:58:59.081Z,12.50
2023-04-16T14:01:01.850Z,13.10
2023-04-16T14:03:07.069Z,13.20
2023-04-16T14:05:10.294Z,13.20
2023-04-16T14:07:21.445Z,13.30
2023-04-16T14:09:26.705Z,13.10
2023-04-16T14:11:29.394Z,13.30
2023-04-16T14:13:32.176Z,13.30
2023-04-16T14:15:35.074Z,13.30
2023-04-16T14:17:38.035Z,13.20
2023-04-16T14:19:45.794Z,13.10
2023-04-16T14:21:48.524Z,13.20
2023-04-16T14:23:51.687Z,13.30
2023-04-16T14:25:57.720Z,13.30
2023-04-16T14:28:01.451Z,13.60
2023-04-16T14:30:05.658Z,13.40
2023-04-16T14:32:12.662Z,13.50
2023-04-16T14:34:15.407Z,13.40
2023-04-16T14:36:23.344Z,13.50
2023-04-16T14:38:27.355Z,13.70
2023-04-16T14:40:30.271Z,13.80
2023-04-16T14:42:37.033Z,13.80
2023-04-16T14:44:39.811Z,13.80
2023-04-16T14:46:42.900Z,13.70
2023-04-16T14:48:47.106Z,13.60
2023-04-16T14:50:49.585Z,13.60
2023-04-16T14:52:53.910Z,13.60
2023-04-16T14:54:56.407Z,13.60
2023-04-16T14:56:58.997Z,13.50
2023-04-16T14:59:04.276Z,13.50
2023-04-16T15:01:06.908Z,13.60
2023-04-16T15:03:09.756Z,13.60
2023-04-16T15:05:18.216Z,13.60
2023-04-16T15:07:21.440Z,13.60
2023-04-16T15:09:24.202Z,13.10
2023-04-16T15:11:30.420Z,13.50
2023-04-16T15:13:35.909Z,13.60
2023-04-16T15:15:41.239Z,14.40
2023-04-16T15:17:44.154Z,13.60
2023-04-16T15:19:46.894Z,13.40
2023-04-16T15:21:49.552Z,14.00
2023-04-16T15:23:52.297Z,13.30
2023-04-16T15:25:55.061Z,13.20
2023-04-16T15:27:57.776Z,13.40
2023-04-16T15:30:00.625Z,13.10
2023-04-16T15:32:07.559Z,13.00
2023-04-16T15:34:14.269Z,13.00
2023-04-16T15:36:17.041Z,12.40
2023-04-16T15:38:21.576Z,12.80
2023-04-16T15:40:26.591Z,12.80
2023-04-16T15:42:29.328Z,12.80
2023-04-16T15:44:34.545Z,12.70
2023-04-16T15:46:39.776Z,12.60
2023-04-16T15:48:45.274Z,12.50
2023-04-16T15:50:48.452Z,12.50
2023-04-16T15:52:54.145Z,11.90
2023-04-16T15:54:57.191Z,11.80
2023-04-16T15:57:02.774Z,11.70
2023-04-16T15:59:05.490Z,12.20
2023-04-16T16:01:12.772Z,12.40
2023-04-16T16:03:15.954Z,11.60
2023-04-16T16:05:21.456Z,11.90
2023-04-16T16:07:26.540Z,11.80
2023-04-16T16:09:29.270Z,12.60
2023-04-16T16:11:32.827Z,11.70
2023-04-16T16:13:37.367Z,11.90
2023-04-16T16:15:41.696Z,11.30
2023-04-16T16:17:44.490Z,11.30
2023-04-16T16:19:49.516Z,11.20
2023-04-16T16:21:54.761Z,11.10
2023-04-16T16:23:58.229Z,10.90
2023-04-16T16:26:06.389Z,11.60
2023-04-16T16:28:11.974Z,10.80
2023-04-16T16:30:15.924Z,10.70
2023-04-16T16:32:18.667Z,10.70
2023-04-16T16:34:22.250Z,11.70
2023-04-16T16:36:25.207Z,10.70
2023-04-16T16:38:30.652Z,10.60
2023-04-16T16:40:33.417Z,10.50
2023-04-16T16:42:36.501Z,10.50
2023-04-16T16:44:39.151Z,10.50
2023-04-16T16:46:41.913Z,10.40
2023-04-16T16:48:47.315Z,10.40
2023-04-16T16:50:50.068Z,10.30
2023-04-16T16:52:53.109Z,10.80
2023-04-16T16:55:01.494Z,10.20
2023-04-16T16:57:06.494Z,10.20
2023-04-16T16:59:12.694Z,10.20
2023-04-16T17:01:16.007Z,10.10
2023-04-16T17:03:18.737Z,10.10
2023-04-16T17:05:21.773Z,10.00
2023-04-16T17:07:30.298Z,9.90
2023-04-16T17:09:33.189Z,9.90
2023-04-16T17:11:41.334Z,9.80
2023-04-16T17:13:44.214Z,9.80
2023-04-16T17:15:47.035Z,10.30
2023-04-16T17:17:50.163Z,9.70
2023-04-16T17:19:55.672Z,9.70
2023-04-16T17:21:58.666Z,9.60
2023-04-16T17:24:01.607Z,9.50
2023-04-16T17:26:04.513Z,9.40
2023-04-16T17:28:09.916Z,9.30
2023-04-16T17:30:13.221Z,9.30
2023-04-16T17:32:16.123Z,9.10
2023-04-16T17:34:22.340Z,9.20
2023-04-16T17:36:27.594Z,8.40
2023-04-16T17:38:30.317Z,9.10
2023-04-16T17:40:34.268Z,9.10
2023-04-16T17:42:37.253Z,8.90
2023-04-16T17:44:45.193Z,9.70
2023-04-16T17:46:50.635Z,9.70
2023-04-16T17:48:53.512Z,10.00
2023-04-16T17:50:56.362Z,8.80
2023-04-16T17:53:05.849Z,8.70
2023-04-16T17:55:11.978Z,9.40
2023-04-16T17:57:14.784Z,8.80
2023-04-16T17:59:17.439Z,8.70
2023-04-16T18:01:24.128Z,8.70
2023-04-16T18:03:27.400Z,8.60
2023-04-16T18:05:31.302Z,8.60
2023-04-16T18:07:34.785Z,9.20
2023-04-16T18:09:37.594Z,9.20
2023-04-16T18:11:41.091Z,8.70
2023-04-16T18:13:47.078Z,7.90
2023-04-16T18:15:49.969Z,8.60
2023-04-16T18:17:55.913Z,9.10
2023-04-16T18:20:01.181Z,8.50
2023-04-16T18:22:06.120Z,8.40
2023-04-16T18:24:11.628Z,8.30
2023-04-16T18:26:18.372Z,7.60
2023-04-16T18:28:24.600Z,8.40
2023-04-16T18:30:28.243Z,8.40
2023-04-16T18:32:31.988Z,8.30
2023-04-16T18:34:38.015Z,8.40
2023-04-16T18:36:41.707Z,8.30
2023-04-16T18:38:59.361Z,8.30
2023-04-16T18:41:03.660Z,8.30
2023-04-16T18:43:06.348Z,8.30
2023-04-16T18:45:14.036Z,8.30
2023-04-16T18:47:18.690Z,8.20
2023-04-16T18:49:27.076Z,9.30
2023-04-16T18:51:34.556Z,8.20
2023-04-16T18:53:39.394Z,8.20
2023-04-16T18:55:42.148Z,8.10
2023-04-16T18:57:44.832Z,8.10
2023-04-16T18:59:50.487Z,8.30
2023-04-16T19:01:53.377Z,7.90
2023-04-16T19:03:56.664Z,8.10
2023-04-16T19:05:59.357Z,8.10
2023-04-16T19:08:05.177Z,8.10
2023-04-16T19:10:09.300Z,8.10
2023-04-16T19:12:12.067Z,8.00
2023-04-16T19:14:14.798Z,9.40
2023-04-16T19:16:17.549Z,8.00
2023-04-16T19:18:21.628Z,8.00
2023-04-16T19:20:26.147Z,7.00
2023-04-16T19:22:28.922Z,7.60
2023-04-16T19:24:35.199Z,7.90
2023-04-16T19:26:37.982Z,7.90
2023-04-16T19:28:42.550Z,7.50
2023-04-16T19:30:46.986Z,7.90
2023-04-16T19:32:49.881Z,7.80
2023-04-16T19:34:54.623Z,7.80
2023-04-16T19:36:59.704Z,7.80
2023-04-16T19:39:02.845Z,7.80
2023-04-16T19:41:08.295Z,7.80
2023-04-16T19:43:15.803Z,8.40
2023-04-16T19:45:18.928Z,8.60
2023-04-16T19:47:21.952Z,7.70
2023-04-16T19:49:27.961Z,8.30
2023-04-16T19:51:32.082Z,7.80
2023-04-16T19:53:35.103Z,7.80
2023-04-16T19:55:40.057Z,6.90
2023-04-16T19:57:48.000Z,7.80
2023-04-16T19:59:55.087Z,7.80
2023-04-16T20:01:58.086Z,7.70
2023-04-16T20:04:00.871Z,7.70
2023-04-16T20:06:05.653Z,7.70
2023-04-16T20:08:08.939Z,8.50
2023-04-16T20:10:12.024Z,7.40
2023-04-16T20:12:17.340Z,7.70
2023-04-16T20:14:22.693Z,7.70
2023-04-16T20:16:25.461Z,7.70
2023-04-16T20:18:30.395Z,8.10
2023-04-16T20:20:35.634Z,8.90
2023-04-16T20:22:38.511Z,7.70
2023-04-16T20:24:49.081Z,9.00
2023-04-16T20:26:51.936Z,8.60
2023-04-16T20:28:56.307Z,8.40
2023-04-16T20:31:01.895Z,6.70
2023-04-16T20:33:06.917Z,7.60
2023-04-16T20:35:11.628Z,7.70
2023-04-16T20:37:15.206Z,7.70
2023-04-16T20:39:20.553Z,7.70
2023-04-16T20:41:25.335Z,7.70
2023-04-16T20:43:29.825Z,7.70
2023-04-16T20:45:38.264Z,8.90
2023-04-16T20:47:45.076Z,7.60
2023-04-16T20:49:48.060Z,7.60
2023-04-16T20:51:53.852Z,7.60
2023-04-16T20:53:58.477Z,7.60
2023-04-16T20:56:01.171Z,7.60
2023-04-16T20:58:05.929Z,7.60
2023-04-16T21:00:12.287Z,7.60
2023-04-16T21:02:15.253Z,7.50
2023-04-16T21:04:21.006Z,7.60
2023-04-16T21:06:23.957Z,8.30
2023-04-16T21:08:26.647Z,7.60
2023-04-16T21:10:31.198Z,7.50
2023-04-16T21:12:33.858Z,7.50
2023-04-16T21:14:38.212Z,7.50
2023-04-16T21:16:40.737Z,7.10
2023-04-16T21:18:46.101Z,8.20
2023-04-16T21:20:51.357Z,7.50
2023-04-16T21:22:56.993Z,6.70
2023-04-16T21:24:59.787Z,7.50
2023-04-16T21:27:02.552Z,8.40
2023-04-16T21:29:05.361Z,6.60
2023-04-16T21:31:08.066Z,7.40
2023-04-16T21:33:13.040Z,7.40
2023-04-16T21:35:16.258Z,7.70
2023-04-16T21:37:22.427Z,7.60
2023-04-16T21:39:27.977Z,8.50
2023-04-16T21:41:30.700Z,7.50
2023-04-16T21:43:33.528Z,7.60
2023-04-16T21:45:36.302Z,7.60
2023-04-16T21:47:39.304Z,7.00
2023-04-16T21:49:42.669Z,7.50
2023-04-16T21:51:46.490Z,7.50
2023-04-16T21:53:51.986Z,7.50
2023-04-16T21:55:54.892Z,8.80
2023-04-16T21:57:57.565Z,7.60
2023-04-16T22:00:00.262Z,7.50
2023-04-16T22:02:03.827Z,7.50
2023-04-16T22:04:07.860Z,8.70
2023-04-16T22:06:11.741Z,8.90
2023-04-16T22:08:24.110Z,7.50
2023-04-16T22:10:31.248Z,8.50
2023-04-16T22:12:35.874Z,7.50
2023-04-16T22:14:43.966Z,7.50
2023-04-16T22:18:55.255Z,7.50
2023-04-16T22:21:02.402Z,7.50
2023-04-16T22:23:05.136Z,7.50
2023-04-16T22:25:08.554Z,7.50
2023-04-16T22:27:13.952Z,7.60
2023-04-16T22:29:17.970Z,7.60
2023-04-16T22:31:20.654Z,7.50
2023-04-16T22:33:23.411Z,8.80
2023-04-16T22:35:26.162Z,7.60
2023-04-16T22:37:29.682Z,7.60
2023-04-16T22:39:32.483Z,7.60
2023-04-16T22:41:37.994Z,7.60
2023-04-16T22:43:43.353Z,7.60
2023-04-16T22:45:46.604Z,7.60
2023-04-16T22:47:49.441Z,7.60
2023-04-16T22:49:53.702Z,7.60
2023-04-16T22:51:56.482Z,7.60
2023-04-16T22:53:59.146Z,7.10
2023-04-16T22:56:03.288Z,6.60
2023-04-16T22:58:05.951Z,7.70
2023-04-16T23:00:16.930Z,8.80
2023-04-16T23:02:20.026Z,7.60
2023-04-16T23:04:23.070Z,7.60
2023-04-16T23:06:27.413Z,7.60
2023-04-16T23:08:29.728Z,8.30
2023-04-16T23:10:32.657Z,7.70
2023-04-16T23:12:37.619Z,7.60
2023-04-16T23:14:49.061Z,7.70
2023-04-16T23:16:54.434Z,8.20
2023-04-16T23:18:57.898Z,8.50
2023-04-16T23:21:00.708Z,7.80
2023-04-16T23:23:03.572Z,7.70
2023-04-16T23:25:08.890Z,7.70
2023-04-16T23:27:12.744Z,7.70
2023-04-16T23:29:15.690Z,6.90
2023-04-16T23:31:18.472Z,7.00
2023-04-16T23:33:24.040Z,7.70
2023-04-16T23:35:26.796Z,7.70
2023-04-16T23:37:30.298Z,7.70
2023-04-16T23:39:32.974Z,7.70
2023-04-16T23:41:35.593Z,7.70
2023-04-16T23:43:40.306Z,7.70
2023-04-16T23:45:43.248Z,7.70
2023-04-16T23:47:46.032Z,7.70
2023-04-16T23:49:51.339Z,7.70
2023-04-16T23:51:56.574Z,7.70
2023-04-16T23:53:59.460Z,7.70
2023-04-16T23:56:02.542Z,7.70
2023-04-16T23:58:05.164Z,7.70
